Time;durP1;ratioP1;P1;durP2;ratioP2;P2;SDS_P1;SDS_P2;PMS_P1;PMS_P2;Temp;Humidity;BMP_temperature;BMP_pressure;BME280_temperature;BME280_humidity;BME280_pressure;Samples;Min_cycle;Max_cycle;Signal;HPM_P1;HPM_P2
2021/03/27 05:08:57;;;;;;;1.07;0.50;;;;;;;7.82;80.99;99018.88;4878964;29;103333;-83
2021/03/27 05:20:45;;;;;;;0.77;0.77;;;;;;;7.80;81.07;99062.84;4855033;29;103233;-77
2021/03/27 05:23:31;;;;;;;0.90;0.70;;;;;;;7.89;80.68;99057.03;4857997;29;102658;-87
2021/03/27 05:26:06;;;;;;;0.60;0.60;;;;;;;7.67;81.86;99068.84;4976717;23;103080;-84
2021/03/27 05:28:50;;;;;;;0.97;0.77;;;;;;;7.70;81.80;99076.56;5001249;23;102159;-82
2021/03/27 05:31:28;;;;;;;0.70;0.70;;;;;;;7.64;81.22;99093.53;4894509;28;101876;-86
2021/03/27 05:34:22;;;;;;;0.83;0.80;;;;;;;7.54;81.54;99093.19;4876793;28;106116;-83
2021/03/27 05:37:06;;;;;;;1.43;0.70;;;;;;;7.66;81.26;99122.38;4876476;28;102610;-78
2021/03/27 05:39:40;;;;;;;0.50;0.50;;;;;;;7.59;80.72;99122.72;4874393;28;102716;-78
2021/03/27 05:42:50;;;;;;;0.60;0.60;;;;;;;7.47;80.24;99123.34;4874035;28;102730;-78
2021/03/27 05:46:10;;;;;;;0.60;0.60;;;;;;;7.57;80.14;99140.34;4873439;28;104003;-78
2021/03/27 05:49:32;;;;;;;2.20;0.70;;;;;;;7.42;80.34;99151.66;4854744;29;104319;-79
2021/03/27 05:52:23;;;;;;;0.70;0.70;;;;;;;7.37;80.30;99158.09;4793134;29;102738;-78
2021/03/27 05:55:25;;;;;;;0.60;0.60;;;;;;;7.44;78.90;99162.09;4779424;29;102698;-79
2021/03/27 05:58:14;;;;;;;1.37;0.60;;;;;;;7.22;78.11;99172.88;4873440;28;103921;-78
2021/03/27 06:01:00;;;;;;;1.40;0.60;;;;;;;7.17;78.49;99182.78;4873165;28;105249;-79
2021/03/27 06:03:56;;;;;;;0.73;0.73;;;;;;;7.11;78.66;99200.63;4873191;28;102750;-78
2021/03/27 06:06:46;;;;;;;1.60;0.70;;;;;;;7.32;78.62;99213.53;4857341;28;102613;-78
2021/03/27 06:09:32;;;;;;;1.23;0.50;;;;;;;7.39;78.15;99219.31;4847734;29;107039;-80
2021/03/27 06:12:16;;;;;;;1.30;0.60;;;;;;;7.51;78.09;99224.81;4858006;28;105318;-79
2021/03/27 06:15:14;;;;;;;0.73;0.70;;;;;;;7.34;77.86;99227.44;4876301;28;102805;-79
2021/03/27 06:18:18;;;;;;;0.93;0.60;;;;;;;7.46;78.30;99233.88;4876979;28;102736;-79
2021/03/27 06:21:04;;;;;;;0.70;0.60;;;;;;;7.51;76.77;99234.47;4875677;28;112573;-78
2021/03/27 06:23:51;;;;;;;0.70;0.70;;;;;;;7.35;75.86;99249.34;4873689;28;103872;-79
2021/03/27 06:26:38;;;;;;;2.40;1.00;;;;;;;7.35;75.99;99254.59;4876484;28;102474;-78
2021/03/27 06:29:56;;;;;;;2.50;0.60;;;;;;;7.49;75.69;99263.47;4876160;28;102586;-78
2021/03/27 06:32:47;;;;;;;1.97;0.80;;;;;;;7.43;75.11;99263.78;4872853;28;103190;-78
2021/03/27 06:35:31;;;;;;;0.93;0.77;;;;;;;7.48;75.91;99261.78;4859063;28;103882;-78
2021/03/27 06:38:26;;;;;;;1.37;0.70;;;;;;;7.48;74.51;99259.16;4868390;28;102793;-77
2021/03/27 06:41:07;;;;;;;2.40;0.97;;;;;;;7.61;74.35;99272.50;4873650;28;102744;-77
2021/03/27 06:43:57;;;;;;;2.47;1.00;;;;;;;7.73;73.71;99265.75;4875343;28;103488;-81
2021/03/27 06:46:54;;;;;;;1.20;0.87;;;;;;;7.82;72.95;99275.81;4866059;28;104807;-80
2021/03/27 06:49:42;;;;;;;3.07;0.93;;;;;;;8.12;71.59;99276.81;4860421;28;102563;-79
2021/03/27 06:52:58;;;;;;;1.53;0.80;;;;;;;8.57;71.95;99277.00;4857309;28;104545;-77
2021/03/27 06:55:46;;;;;;;2.27;0.73;;;;;;;8.54;70.89;99286.84;4873202;28;111135;-76
2021/03/27 06:58:48;;;;;;;2.17;0.80;;;;;;;8.73;69.93;99288.38;4889875;28;104284;-79
2021/03/27 07:02:07;;;;;;;1.27;1.00;;;;;;;8.49;68.61;99294.16;4853645;28;102636;-76
2021/03/27 07:11:35;;;;;;;1.80;0.90;;;;;;;8.31;68.22;99300.44;5590463;23;104155;31
2021/03/27 07:14:46;;;;;;;1.47;0.70;;;;;;;8.38;66.89;99301.78;5302099;23;106577;31
2021/03/27 07:20:22;;;;;;;3.10;1.10;;;;;;;8.60;67.59;99319.00;5292979;23;105766;31
2021/03/27 07:23:16;;;;;;;1.13;0.80;;;;;;;8.57;66.62;99316.50;5174512;23;104395;-80
2021/03/27 07:28:49;;;;;;;3.30;0.90;;;;;;;9.06;65.62;99326.97;5797424;23;104739;31
2021/03/27 07:31:34;;;;;;;2.37;0.70;;;;;;;8.81;63.28;99329.28;4860084;29;105204;-79
2021/03/27 07:37:47;;;;;;;2.93;1.13;;;;;;;9.27;61.14;99316.06;5979972;23;105239;31
2021/03/27 07:40:43;;;;;;;2.23;1.00;;;;;;;9.06;61.29;99319.06;4814872;26;102528;-80
2021/03/27 07:49:12;;;;;;;1.90;0.90;;;;;;;9.57;56.42;99316.06;4825356;29;103101;-80
2021/03/27 08:27:58;;;;;;;1.53;0.87;;;;;;;10.21;55.49;99384.41;4840331;29;104083;-76
2021/03/27 10:10:46;;;;;;;1.20;0.70;;;;;;;13.44;40.75;99455.59;4814243;29;105582;-78
2021/03/27 10:17:24;;;;;;;3.90;1.13;;;;;;;13.56;40.63;99470.63;4795626;29;102424;-78
2021/03/27 10:20:22;;;;;;;1.80;0.80;;;;;;;13.43;39.62;99475.13;4798497;29;101861;-79
2021/03/27 10:23:02;;;;;;;1.83;0.70;;;;;;;14.13;39.92;99466.34;4884411;23;103768;-80
2021/03/27 10:25:36;;;;;;;0.77;0.57;;;;;;;14.38;39.12;99468.88;4873330;29;102251;-85
2021/03/27 10:31:26;;;;;;;1.03;0.70;;;;;;;13.81;38.91;99473.22;5143469;23;102374;-84
2021/03/27 11:29:27;;;;;;;2.87;1.07;;;;;;;12.42;40.72;99520.19;4855999;29;102612;-76
2021/03/27 11:38:57;;;;;;;1.70;0.83;;;;;;;12.60;41.35;99514.47;4933664;23;102846;-81
2021/03/27 11:41:39;;;;;;;2.23;1.00;;;;;;;12.45;41.40;99501.44;4894891;28;102787;-83
2021/03/27 11:44:26;;;;;;;1.63;1.00;;;;;;;12.39;42.95;99512.44;4897892;28;102480;-80
2021/03/27 11:46:59;;;;;;;1.60;0.70;;;;;;;12.33;41.96;99504.88;4895398;28;102475;-81
2021/03/27 11:49:41;;;;;;;3.07;1.00;;;;;;;12.69;40.98;99502.41;4889820;28;102803;-82
2021/03/27 11:52:22;;;;;;;1.83;0.83;;;;;;;13.24;40.07;99497.66;4902271;28;102580;-82
2021/03/27 11:54:56;;;;;;;1.87;1.00;;;;;;;14.03;39.13;99497.22;4879528;28;102543;-77
2021/03/27 11:57:32;;;;;;;2.57;1.00;;;;;;;14.46;38.52;99490.41;4884009;28;102551;-78
2021/03/27 12:03:22;;;;;;;2.23;1.07;;;;;;;15.20;36.72;99488.22;4881256;28;103790;-83
2021/03/27 12:05:53;;;;;;;2.43;0.90;;;;;;;15.72;37.30;99482.31;4891028;28;102755;-81
2021/03/27 12:08:29;;;;;;;2.50;0.90;;;;;;;15.56;36.75;99483.53;4898674;28;103121;-80
2021/03/27 12:11:06;;;;;;;2.30;1.20;;;;;;;15.87;36.94;99487.22;4897130;28;111680;-80
2021/03/27 12:13:40;;;;;;;2.03;0.90;;;;;;;14.95;35.95;99481.34;4891879;28;102503;-79
2021/03/27 12:16:25;;;;;;;3.40;1.10;;;;;;;14.51;37.63;99488.25;4891386;28;102817;-80
2021/03/27 12:19:08;;;;;;;2.33;0.90;;;;;;;14.95;38.13;99473.34;4896848;28;103179;-80
2021/03/27 12:21:45;;;;;;;2.50;0.90;;;;;;;14.76;39.36;99487.25;4901787;28;102591;-80
2021/03/27 12:24:22;;;;;;;2.60;0.93;;;;;;;13.92;37.16;99489.19;4892141;28;103544;-80
2021/03/27 12:26:58;;;;;;;1.77;0.90;;;;;;;14.20;36.53;99488.84;4879512;28;103612;-78
2021/03/27 12:29:37;;;;;;;2.10;1.00;;;;;;;13.71;37.24;99493.41;4871095;28;103493;-78
2021/03/27 12:32:43;;;;;;;2.30;0.87;;;;;;;13.09;38.23;99514.66;4865311;28;104317;-78
2021/03/27 12:35:20;;;;;;;2.07;1.10;;;;;;;13.13;38.77;99504.69;4866120;28;103702;-78
2021/03/27 12:38:04;;;;;;;1.67;0.93;;;;;;;13.11;38.02;99507.44;4863988;28;103500;-78
2021/03/27 12:40:38;;;;;;;2.03;0.80;;;;;;;12.95;38.97;99498.81;4858884;28;103426;-78
2021/03/27 12:43:09;;;;;;;3.13;1.53;;;;;;;12.95;38.53;99501.47;4850320;28;104047;-77
2021/03/27 12:45:40;;;;;;;3.03;1.27;;;;;;;12.76;39.05;99511.66;4862214;28;103417;-77
2021/03/27 12:48:30;;;;;;;5.13;2.03;;;;;;;13.03;40.33;99515.03;4860841;28;102964;-77
2021/03/27 12:51:15;;;;;;;3.00;1.80;;;;;;;13.23;40.87;99511.88;4864601;28;103378;-76
2021/03/27 12:54:09;;;;;;;1.60;1.00;;;;;;;12.97;40.44;99506.69;4861684;28;104019;-76
2021/03/27 12:57:36;;;;;;;1.53;1.10;;;;;;;13.94;38.18;99503.22;4827436;28;109422;-76
2021/03/27 13:00:28;;;;;;;1.13;0.70;;;;;;;13.83;38.46;99501.34;4855595;28;103122;-77
2021/03/27 13:03:10;;;;;;;2.57;1.00;;;;;;;14.14;38.30;99515.88;4855970;28;103348;-77
2021/03/27 13:05:42;;;;;;;2.60;1.03;;;;;;;13.29;37.92;99508.81;4844621;28;105220;-77
2021/03/27 13:08:25;;;;;;;1.83;0.90;;;;;;;13.97;37.67;99507.44;4868066;28;103771;-80
2021/03/27 13:11:18;;;;;;;1.93;1.00;;;;;;;13.74;37.24;99517.09;4841632;28;103424;-78
2021/03/27 13:14:23;;;;;;;1.60;0.90;;;;;;;14.31;37.22;99512.81;4843832;28;103038;-78
2021/03/27 13:16:54;;;;;;;1.27;0.87;;;;;;;14.49;36.78;99511.44;4788305;29;104361;-77
2021/03/27 13:19:36;;;;;;;2.13;1.10;;;;;;;14.22;37.47;99516.16;4849029;28;105322;-78
2021/03/27 13:22:16;;;;;;;1.43;0.90;;;;;;;13.91;36.48;99501.63;4831424;28;103947;-78
2021/03/27 13:25:05;;;;;;;2.07;0.83;;;;;;;13.58;37.78;99500.56;4847039;29;103393;-77
2021/03/27 13:57:20;;;;;;;2.93;1.53;;;;;;;13.79;38.00;99520.25;4818220;29;102621;-78
2021/03/27 14:02:59;;;;;;;4.00;1.23;;;;;;;14.19;39.00;99513.72;5884336;23;105757;-79
2021/03/27 14:05:39;;;;;;;3.00;1.27;;;;;;;13.92;39.34;99507.78;4833729;29;107137;-80
2021/03/27 14:08:17;;;;;;;4.50;1.33;;;;;;;13.98;37.64;99525.09;4841692;29;103792;-80
2021/03/27 14:10:49;;;;;;;1.37;0.87;;;;;;;14.05;38.20;99521.00;4850213;29;103078;-80
2021/03/27 14:13:26;;;;;;;3.20;1.10;;;;;;;14.07;37.32;99527.06;4845799;29;103237;-80
2021/03/27 14:16:05;;;;;;;3.00;1.40;;;;;;;13.54;37.52;99533.59;4853373;29;104983;-80
2021/03/27 14:18:47;;;;;;;3.50;0.80;;;;;;;13.60;38.05;99541.13;4846642;29;104056;-79
2021/03/27 14:21:22;;;;;;;3.77;1.20;;;;;;;13.77;39.21;99546.09;4850851;29;103180;-78
2021/03/27 14:24:32;;;;;;;3.60;1.13;;;;;;;13.16;38.82;99542.47;4855948;29;102855;-80
2021/03/27 14:27:13;;;;;;;3.73;1.00;;;;;;;12.92;39.44;99544.13;4845014;29;104084;-80
2021/03/27 14:29:49;;;;;;;2.50;1.07;;;;;;;13.01;39.56;99543.50;4855091;29;103642;-80
2021/03/27 14:32:26;;;;;;;4.23;0.90;;;;;;;13.13;39.63;99547.13;4852277;29;103089;-77
2021/03/27 14:35:24;;;;;;;3.17;0.90;;;;;;;13.70;40.04;99542.16;4849406;29;103264;-76
2021/03/27 14:38:11;;;;;;;2.27;1.20;;;;;;;12.94;39.32;99547.50;4830426;29;104082;-77
2021/03/27 14:40:47;;;;;;;2.50;1.00;;;;;;;12.65;40.27;99548.66;4842536;29;109687;-77
2021/03/27 14:43:38;;;;;;;4.23;1.30;;;;;;;12.52;40.45;99553.09;4849456;29;103198;-77
2021/03/27 14:46:49;;;;;;;2.47;1.10;;;;;;;12.16;40.95;99554.56;4835050;29;103369;-76
2021/03/27 14:49:35;;;;;;;1.97;1.00;;;;;;;12.47;41.18;99547.22;4846161;29;105632;-76
2021/03/27 14:52:08;;;;;;;2.43;1.30;;;;;;;12.65;41.04;99546.00;4849366;29;105129;-76
2021/03/27 14:54:42;;;;;;;4.00;1.40;;;;;;;12.55;41.06;99553.72;4853087;29;103034;-76
2021/03/27 14:57:18;;;;;;;3.10;1.60;;;;;;;12.47;40.68;99553.38;4844290;29;103093;-76
2021/03/27 14:59:47;;;;;;;2.37;1.20;;;;;;;12.28;41.42;99562.66;4849407;29;104744;-77
2021/03/27 15:02:24;;;;;;;2.67;1.50;;;;;;;11.98;42.31;99558.41;4851743;29;103763;-76
2021/03/27 15:04:59;;;;;;;2.47;1.07;;;;;;;12.50;42.45;99547.88;4845058;29;103183;-76
2021/03/27 15:07:29;;;;;;;2.43;1.20;;;;;;;12.69;42.09;99544.81;4852413;29;103254;-77
2021/03/27 15:10:29;;;;;;;4.87;1.50;;;;;;;12.38;42.36;99553.16;4852089;29;104914;-76
2021/03/27 15:13:06;;;;;;;2.17;1.30;;;;;;;12.38;41.73;99547.84;4851942;29;103852;-76
2021/03/27 15:15:38;;;;;;;4.80;1.57;;;;;;;12.77;41.76;99555.78;4852820;29;104272;-76
2021/03/27 15:18:14;;;;;;;3.50;1.30;;;;;;;12.43;42.41;99556.34;4872225;28;103173;-81
2021/03/27 15:21:14;;;;;;;2.80;1.20;;;;;;;12.34;42.15;99559.59;4913821;23;102559;-81
2021/03/27 15:27:18;;;;;;;3.03;1.20;;;;;;;12.05;42.69;99586.19;4893705;28;102693;-81
2021/03/27 15:30:00;;;;;;;2.53;1.10;;;;;;;12.16;42.53;99570.44;4884432;28;103010;-77
2021/03/27 15:32:35;;;;;;;2.73;1.00;;;;;;;12.00;42.70;99576.84;4872809;28;103930;-76
2021/03/27 15:35:16;;;;;;;2.47;1.20;;;;;;;12.13;42.43;99575.94;4869048;28;103699;-76
2021/03/27 15:37:47;;;;;;;4.20;1.43;;;;;;;11.79;42.70;99581.69;4870054;28;103152;-76
2021/03/27 15:40:21;;;;;;;3.60;1.47;;;;;;;11.76;42.72;99583.72;4870106;28;103161;-76
2021/03/27 15:42:52;;;;;;;4.23;1.20;;;;;;;11.84;42.78;99594.66;4870165;28;103965;-76
2021/03/27 15:45:46;;;;;;;3.57;1.30;;;;;;;11.83;42.16;99588.50;4862785;28;103744;-76
2021/03/27 15:48:17;;;;;;;2.97;0.97;;;;;;;12.28;41.82;99579.41;4862862;28;103213;-77
2021/03/27 15:50:58;;;;;;;3.90;1.37;;;;;;;12.04;42.02;99589.78;4871705;28;103508;-76
2021/03/27 15:53:30;;;;;;;1.43;0.90;;;;;;;12.11;42.16;99588.44;4868688;28;104456;-77
2021/03/27 15:56:10;;;;;;;2.33;1.00;;;;;;;11.95;41.95;99597.47;4868962;28;103818;-78
2021/03/27 15:58:41;;;;;;;1.83;1.03;;;;;;;11.93;42.38;99594.91;4870260;28;102947;-76
2021/03/27 16:01:14;;;;;;;3.23;1.30;;;;;;;11.81;42.51;99589.56;4870340;28;102796;-77
2021/03/27 16:04:03;;;;;;;3.13;0.90;;;;;;;11.88;42.96;99597.00;4847061;28;108579;-77
2021/03/27 16:06:41;;;;;;;4.23;1.00;;;;;;;11.90;43.47;99603.03;4868004;28;103688;-77
2021/03/27 16:09:22;;;;;;;4.47;1.10;;;;;;;11.83;43.30;99598.25;4865274;28;102983;-76
2021/03/27 16:12:03;;;;;;;3.10;1.60;;;;;;;11.76;42.85;99607.53;4870390;28;103131;-76
2021/03/27 16:15:18;;;;;;;2.97;1.30;;;;;;;11.61;42.43;99604.00;4870553;28;105359;-77
2021/03/27 16:18:33;;;;;;;3.37;1.50;;;;;;;11.64;42.74;99602.03;4870606;28;105124;-76
2021/03/27 16:21:14;;;;;;;4.30;1.13;;;;;;;11.64;43.26;99603.81;4870559;28;103119;-76
2021/03/27 16:23:50;;;;;;;4.13;1.40;;;;;;;11.67;43.28;99614.22;4871219;28;103020;-76
2021/03/27 16:26:37;;;;;;;3.57;1.40;;;;;;;11.55;42.70;99604.38;4863798;28;105080;-77
2021/03/27 16:29:44;;;;;;;3.27;1.00;;;;;;;11.67;42.95;99603.63;4871006;28;103833;-79
2021/03/27 16:35:29;;;;;;;4.33;2.43;;;;;;;11.61;43.14;99614.59;4840911;29;102553;-82
2021/03/27 16:41:06;;;;;;;3.53;1.50;;;;;;;11.71;43.33;99615.75;5016520;23;104143;-82
2021/03/27 16:43:40;;;;;;;3.47;1.50;;;;;;;11.26;43.99;99618.53;4900543;28;101880;-82
2021/03/27 16:50:35;;;;;;;4.00;1.90;;;;;;;11.12;44.15;99629.09;4821714;29;103165;-82
2021/03/27 16:56:24;;;;;;;6.27;1.87;;;;;;;11.36;44.16;99640.84;4922193;23;102393;-81
2021/03/27 16:59:08;;;;;;;4.13;2.40;;;;;;;11.00;43.21;99639.47;4899350;28;101712;-81
2021/03/27 17:01:44;;;;;;;4.30;2.10;;;;;;;11.15;43.14;99642.13;4898754;28;102829;-82
2021/03/27 17:04:50;;;;;;;4.93;2.20;;;;;;;10.95;43.24;99644.16;4898468;28;103947;-81
2021/03/27 17:07:24;;;;;;;4.63;1.83;;;;;;;11.06;42.62;99649.69;4881100;28;102346;-83
2021/03/27 17:09:59;;;;;;;6.00;1.40;;;;;;;11.12;42.69;99659.03;4879672;28;102855;-81
2021/03/27 17:12:43;;;;;;;3.90;1.57;;;;;;;11.03;43.46;99664.91;4875302;28;102618;-82
2021/03/27 17:15:15;;;;;;;5.60;1.60;;;;;;;10.80;43.20;99668.88;4896327;28;103546;-81
2021/03/27 17:17:52;;;;;;;4.43;1.67;;;;;;;10.85;42.97;99674.75;4877982;23;104277;-80
2021/03/27 17:20:31;;;;;;;4.33;1.60;;;;;;;10.99;43.16;99669.50;4813292;29;102614;-81
2021/03/27 17:23:23;;;;;;;3.93;1.60;;;;;;;10.92;43.22;99689.31;4812475;29;103308;-78
2021/03/27 17:26:23;;;;;;;6.27;2.03;;;;;;;10.99;43.26;99680.09;4814977;29;103694;-78
2021/03/27 17:29:06;;;;;;;3.23;1.47;;;;;;;10.96;43.61;99685.56;4807210;29;102755;-78
2021/03/27 17:31:41;;;;;;;3.57;1.70;;;;;;;10.84;44.14;99691.53;4816152;29;103355;-79
2021/03/27 17:34:14;;;;;;;3.47;1.60;;;;;;;10.93;44.12;99688.38;4791142;29;105815;-79
2021/03/27 17:36:58;;;;;;;3.30;1.50;;;;;;;10.60;44.61;99700.03;4824211;29;103730;-80
2021/03/27 17:39:28;;;;;;;5.93;1.87;;;;;;;10.59;44.42;99700.94;4835448;29;102369;-80
2021/03/27 17:42:13;;;;;;;3.70;1.37;;;;;;;10.76;44.66;99699.06;4825991;29;103584;-79
2021/03/27 17:45:06;;;;;;;3.30;1.43;;;;;;;10.56;44.61;99706.41;4828375;29;103464;-79
2021/03/27 17:47:57;;;;;;;4.30;2.50;;;;;;;10.51;44.73;99703.19;4837605;29;103099;-79
2021/03/27 17:50:45;;;;;;;4.20;1.60;;;;;;;10.50;45.34;99699.69;4828056;29;102649;-77
2021/03/27 17:53:17;;;;;;;5.20;1.60;;;;;;;10.42;45.54;99704.53;4837199;29;102498;-82
2021/03/27 17:56:02;;;;;;;3.53;1.47;;;;;;;10.26;45.32;99706.34;4857736;29;102614;-80
2021/03/27 18:15:36;;;;;;;3.73;1.30;;;;;;;10.03;45.98;99733.09;5964019;23;104477;-80
2021/03/27 18:18:14;;;;;;;2.30;1.00;;;;;;;10.13;46.61;99739.66;4791217;29;104825;-79
2021/03/27 18:21:11;;;;;;;4.63;1.50;;;;;;;9.87;46.41;99744.50;4808926;29;102847;-80
2021/03/27 18:24:27;;;;;;;3.33;1.73;;;;;;;10.02;46.09;99744.63;4790304;29;102663;-79
2021/03/27 18:27:01;;;;;;;3.40;1.57;;;;;;;10.05;46.70;99747.94;4795746;29;102669;-81
2021/03/27 18:29:44;;;;;;;3.40;1.50;;;;;;;10.13;46.36;99760.78;4815894;29;102305;-81
2021/03/27 18:41:23;;;;;;;4.67;1.87;;;;;;;9.92;47.10;99762.72;4765843;29;101749;-80
2021/03/27 18:44:10;;;;;;;2.73;1.53;;;;;;;9.88;47.12;99779.66;4764022;29;102760;-81
2021/03/27 18:46:45;;;;;;;3.60;1.37;;;;;;;9.91;47.27;99777.72;4754611;29;102831;-81
2021/03/27 18:49:16;;;;;;;5.07;1.77;;;;;;;10.03;47.07;99775.34;4767095;29;101960;-82
2021/03/27 18:51:48;;;;;;;3.33;1.70;;;;;;;10.03;47.29;99780.63;4773675;29;102395;-83
2021/03/27 18:54:23;;;;;;;3.00;1.73;;;;;;;10.10;47.55;99777.59;4784855;29;101777;-81
2021/03/27 18:56:53;;;;;;;4.67;1.40;;;;;;;10.00;47.46;99789.56;4784670;29;102737;-79
2021/03/27 18:59:25;;;;;;;4.23;1.53;;;;;;;9.98;48.00;99787.94;4779286;29;102704;-79
2021/03/27 19:02:33;;;;;;;4.10;1.70;;;;;;;10.03;47.89;99791.19;4765205;29;102803;-81
2021/03/27 19:05:37;;;;;;;4.37;1.80;;;;;;;10.01;47.74;99795.72;4787073;29;102517;-80
2021/03/27 19:08:29;;;;;;;4.27;2.53;;;;;;;10.00;48.09;99799.28;4778043;29;105698;-79
2021/03/27 19:11:16;;;;;;;5.63;2.57;;;;;;;9.87;48.10;99801.72;4782464;29;108651;-78
2021/03/27 19:13:47;;;;;;;6.87;2.30;;;;;;;9.81;48.74;99797.63;4785758;29;102629;-79
2021/03/27 19:16:37;;;;;;;3.63;2.13;;;;;;;9.89;48.42;99798.06;4766869;29;102730;-79
2021/03/27 19:19:23;;;;;;;5.73;2.20;;;;;;;9.91;48.18;99798.81;4777249;29;102454;-80
2021/03/27 19:21:56;;;;;;;4.23;1.70;;;;;;;9.91;48.70;99808.53;4755400;29;103972;-79
2021/03/27 19:24:41;;;;;;;4.40;1.67;;;;;;;9.91;48.88;99814.66;4784969;29;102670;-79
2021/03/27 19:27:13;;;;;;;4.00;2.63;;;;;;;9.89;48.86;99813.91;4805437;29;102506;-80
2021/03/27 19:29:47;;;;;;;14.50;8.50;;;;;;;9.82;49.01;99819.59;4806176;29;103453;-79
2021/03/27 19:32:19;;;;;;;16.47;9.47;;;;;;;9.75;49.61;99816.41;4807081;29;103158;-79
2021/03/27 19:35:18;;;;;;;4.80;2.30;;;;;;;9.68;49.35;99822.94;4789306;29;102711;-79
2021/03/27 19:37:49;;;;;;;4.33;2.50;;;;;;;9.80;49.15;99827.56;4804084;29;103467;-79
2021/03/27 19:40:22;;;;;;;3.43;2.00;;;;;;;9.78;49.61;99828.59;4805985;29;103902;-80
2021/03/27 19:42:56;;;;;;;4.60;1.87;;;;;;;9.72;49.94;99823.63;4804320;29;102659;-80
2021/03/27 19:48:53;;;;;;;3.83;1.80;;;;;;;9.64;49.96;99831.94;4804455;29;103375;-79
2021/03/27 19:51:59;;;;;;;3.17;1.60;;;;;;;9.81;49.67;99837.19;4802930;29;103903;-79
2021/03/27 19:55:16;;;;;;;2.40;1.80;;;;;;;9.87;49.84;99834.25;4781771;29;104001;-79
2021/03/27 19:58:05;;;;;;;6.03;1.90;;;;;;;9.90;50.33;99841.16;4746916;29;102926;-80
2021/03/27 20:00:56;;;;;;;6.43;2.00;;;;;;;9.73;49.67;99842.03;4746472;29;102634;-80
2021/03/27 20:03:45;;;;;;;4.70;1.80;;;;;;;9.72;50.35;99845.59;4746086;29;104307;-79
2021/03/27 20:06:20;;;;;;;3.30;1.70;;;;;;;9.79;49.89;99847.00;4759896;29;106643;-79
2021/03/27 20:08:50;;;;;;;4.23;1.73;;;;;;;9.68;49.90;99848.47;4747724;29;102825;-79
2021/03/27 20:11:36;;;;;;;3.83;1.30;;;;;;;9.72;49.81;99850.88;4747464;29;104446;-79
2021/03/27 20:14:08;;;;;;;2.53;1.17;;;;;;;9.77;49.72;99840.91;4748706;29;104024;-79
2021/03/27 20:17:18;;;;;;;4.30;1.93;;;;;;;9.68;49.98;99849.31;4814605;29;104239;-79
2021/03/27 20:20:20;;;;;;;3.67;1.50;;;;;;;9.68;49.66;99849.31;4807719;29;102687;-80
2021/03/27 20:22:51;;;;;;;5.30;1.57;;;;;;;9.80;49.80;99853.97;4819904;29;102752;-79
2021/03/27 20:25:28;;;;;;;2.80;1.60;;;;;;;9.75;49.61;99858.63;4824164;29;103021;-79
2021/03/27 20:28:07;;;;;;;3.53;1.60;;;;;;;9.62;49.64;99865.47;4823380;29;102724;-80
2021/03/27 20:30:38;;;;;;;4.03;1.33;;;;;;;9.73;49.67;99862.28;4821971;29;102486;-80
2021/03/27 20:33:23;;;;;;;3.67;1.23;;;;;;;9.80;49.92;99864.50;4806737;29;103786;-79
2021/03/27 20:39:39;;;;;;;4.13;1.30;;;;;;;9.80;50.34;99875.06;4824083;29;103860;-79
2021/03/27 20:42:20;;;;;;;3.50;1.30;;;;;;;9.75;50.72;99878.88;4822753;29;102534;-79
2021/03/27 20:45:32;;;;;;;4.07;1.73;;;;;;;9.68;51.22;99878.34;4809106;29;102771;-80
2021/03/27 20:52:33;;;;;;;1.87;1.20;;;;;;;9.76;51.27;99884.09;4800935;29;103016;-79
2021/03/27 20:59:16;;;;;;;3.97;2.10;;;;;;;9.57;51.56;99883.28;4784801;29;102713;-78
2021/03/27 21:01:52;;;;;;;2.63;1.40;;;;;;;9.64;51.08;99879.44;4782789;29;103910;-78
2021/03/27 21:08:29;;;;;;;6.63;1.67;;;;;;;9.64;50.56;99884.69;4793670;29;102525;-80
2021/03/27 21:15:04;;;;;;;5.30;2.00;;;;;;;9.57;50.78;99883.28;4764804;29;103296;-79
2021/03/27 21:17:36;;;;;;;4.77;1.70;;;;;;;9.47;51.38;99892.59;4763616;29;106473;-80
2021/03/27 21:20:20;;;;;;;3.63;1.77;;;;;;;9.55;50.67;99895.69;4800016;29;103098;-79
2021/03/27 21:23:38;;;;;;;5.10;2.10;;;;;;;9.59;51.55;99897.28;4801884;29;102814;-79
2021/03/27 21:29:36;;;;;;;2.90;1.57;;;;;;;9.60;51.72;99898.13;4724469;29;103735;-78
2021/03/27 21:39:36;;;;;;;3.37;1.80;;;;;;;9.44;51.47;99900.66;4702259;29;102993;-77
2021/03/27 21:42:41;;;;;;;4.63;2.13;;;;;;;9.39;51.38;99899.16;4708410;29;103799;-78
2021/03/27 21:49:43;;;;;;;3.23;1.70;;;;;;;9.42;51.84;99921.00;4728507;29;103273;-78
2021/03/27 21:53:39;;;;;;;3.83;1.90;;;;;;;9.43;51.55;99920.03;4741274;29;102966;-78
2021/03/27 21:56:17;;;;;;;4.10;1.77;;;;;;;9.45;51.38;99920.84;4713679;29;103670;-78
2021/03/27 21:59:16;;;;;;;5.97;1.87;;;;;;;9.30;51.96;99924.22;4710787;29;102697;-78
2021/03/27 22:05:43;;;;;;;3.30;1.20;;;;;;;9.32;51.95;99923.19;4712387;29;104668;-78
2021/03/27 22:08:16;;;;;;;3.83;1.70;;;;;;;9.31;52.12;99925.94;4725615;29;103864;-79
2021/03/27 22:10:51;;;;;;;5.80;1.70;;;;;;;9.38;52.29;99929.97;4726429;29;102661;-78
2021/03/27 22:14:14;;;;;;;3.23;1.60;;;;;;;9.17;52.06;99928.38;4725980;29;102775;-79
2021/03/27 22:16:56;;;;;;;3.70;1.70;;;;;;;9.27;51.94;99921.72;4736003;29;104033;-79
2021/03/27 22:20:10;;;;;;;4.33;1.77;;;;;;;9.24;52.27;99927.13;4728597;29;107154;-78
2021/03/27 22:23:16;;;;;;;5.30;2.10;;;;;;;9.18;52.05;99920.38;4741327;29;102771;-76
2021/03/27 22:25:49;;;;;;;3.43;1.70;;;;;;;9.23;52.42;99928.91;4743986;29;102812;-77
2021/03/27 22:28:47;;;;;;;3.97;1.70;;;;;;;9.01;53.72;99930.00;4761502;29;102929;-78
2021/03/27 22:31:28;;;;;;;3.33;1.77;;;;;;;9.07;52.95;99935.84;4761447;29;103706;-77
2021/03/27 22:34:20;;;;;;;4.37;1.70;;;;;;;9.09;53.18;99933.16;4761663;29;102685;-77
2021/03/27 22:36:50;;;;;;;6.47;2.07;;;;;;;9.01;52.93;99940.56;4796697;29;102869;-79
2021/03/27 22:39:24;;;;;;;4.20;2.10;;;;;;;8.98;52.92;99935.44;4818263;29;104968;-79
2021/03/27 22:42:12;;;;;;;3.90;1.97;;;;;;;8.96;53.02;99937.25;4818100;29;103872;-79
2021/03/27 22:45:08;;;;;;;3.53;1.93;;;;;;;9.03;53.16;99938.69;4818950;29;102743;-78
2021/03/27 22:51:10;;;;;;;3.17;1.40;;;;;;;8.92;53.57;99941.84;4810147;29;104418;-79
2021/03/27 22:53:56;;;;;;;3.43;1.13;;;;;;;8.97;53.48;99944.25;4821095;29;104952;-78
2021/03/27 22:56:32;;;;;;;2.77;1.47;;;;;;;8.96;53.78;99937.25;4821078;29;102523;-79
2021/03/27 23:02:39;;;;;;;2.77;1.40;;;;;;;8.73;54.73;99941.81;4771252;29;104388;-79
2021/03/27 23:08:31;;;;;;;3.43;1.47;;;;;;;8.71;54.54;99937.53;4764479;29;102646;-79
2021/03/27 23:11:11;;;;;;;6.13;1.63;;;;;;;8.73;54.41;99938.31;4764612;29;102657;-79
2021/03/27 23:13:49;;;;;;;4.10;1.67;;;;;;;8.73;54.49;99943.56;4764056;29;103597;-78
2021/03/27 23:17:07;;;;;;;1.90;1.10;;;;;;;8.67;55.12;99939.44;4748291;29;103362;-79
2021/03/27 23:19:35;;;;;;;2.67;1.50;;;;;;;8.63;55.19;99945.78;4745677;29;102850;-79
2021/03/27 23:22:18;;;;;;;4.97;1.77;;;;;;;8.52;55.52;99952.44;4745945;29;102689;-79
2021/03/27 23:25:02;;;;;;;6.90;2.57;;;;;;;8.36;55.85;99954.06;4745390;29;107451;-79
2021/03/27 23:27:37;;;;;;;3.50;1.63;;;;;;;8.36;55.96;99952.28;4759525;29;103269;-79
2021/03/27 23:31:18;;;;;;;3.07;1.47;;;;;;;8.41;55.84;99950.31;4674601;30;102916;-79
2021/03/27 23:33:58;;;;;;;4.77;1.80;;;;;;;8.36;56.18;99947.03;4739550;29;102752;-79
2021/03/27 23:36:51;;;;;;;3.53;2.03;;;;;;;8.26;57.41;99945.66;4744937;29;104271;-78
2021/03/27 23:39:49;;;;;;;2.37;1.50;;;;;;;8.23;57.10;99945.78;4721824;29;104834;-77
2021/03/27 23:42:22;;;;;;;3.20;2.20;;;;;;;8.23;57.06;99945.78;4746057;29;102670;-79
2021/03/27 23:44:52;;;;;;;4.23;1.63;;;;;;;8.21;56.96;99939.75;4763582;29;102606;-79
2021/03/27 23:53:51;;;;;;;2.47;1.40;;;;;;;7.85;58.45;99951.81;4836682;29;102641;-79
2021/03/27 23:56:26;;;;;;;2.97;1.60;;;;;;;7.89;58.12;99950.75;4839925;29;102618;-79
2021/03/27 23:59:22;;;;;;;3.73;1.63;;;;;;;7.91;58.38;99946.31;4837754;29;104070;-79
